BIHE weather

Herðubreiðarlindir Airport
Herðubreiðarlindir, Eastern Region, Iceland

Public forecast

Using degrees Celsius for public forecast. Weather courtesy of forecast.io.

Closest aviation weather report (METAR) to Herðubreiðarlindir Airport

Closest report is Egilsstaðir Airport, 45.5 nm (84.2 km) E. Retrieved 2020/07/04 16:00 UTC (6 minutes ago):

BIEG 041600Z 14011KT 9999 FEW040 11/01 Q1000

Closest aviation forecast (TAF) to Herðubreiðarlindir Airport

Closest forecast is Egilsstaðir Airport, 45.5 nm (84.2 km) E. Retrieved 2020/07/04 15:18 UTC (48 minutes ago):

TAF TAF BIEG 041315Z 0415/0515 19008KT 9999 FEW035 TX12/0415Z TN05/0406Z TEMPO 0415/0421 12012KT BECMG 0423/0501 01008KT BKN025